createdAt,value
2022-12-27T00:00:14.241Z,1.86
2022-12-27T00:02:46.457Z,2.02
2022-12-27T00:05:16.505Z,2.17
2022-12-27T00:07:46.310Z,2.25
2022-12-27T00:10:15.891Z,2.26
2022-12-27T00:12:45.490Z,2.23
2022-12-27T00:15:15.084Z,2.19
2022-12-27T00:17:47.244Z,2.14
2022-12-27T00:20:16.829Z,2.11
2022-12-27T00:22:46.752Z,2.13
2022-12-27T00:25:16.399Z,2.22
2022-12-27T00:27:45.972Z,2.34
2022-12-27T00:30:16.353Z,2.48
2022-12-27T00:32:48.523Z,2.61
2022-12-27T00:35:18.153Z,2.73
2022-12-27T00:37:47.810Z,2.82
2022-12-27T00:40:17.411Z,2.85
2022-12-27T00:42:47.005Z,2.83
2022-12-27T00:45:16.583Z,2.79
2022-12-27T00:47:48.775Z,2.71
2022-12-27T00:50:18.743Z,2.65
2022-12-27T00:52:48.321Z,2.62
2022-12-27T00:55:17.975Z,2.58
2022-12-27T00:57:47.684Z,2.60
2022-12-27T01:00:18.720Z,2.68
2022-12-27T01:02:50.890Z,2.75
2022-12-27T01:05:21.976Z,2.74
2022-12-27T01:07:51.573Z,2.66
2022-12-27T01:10:21.401Z,2.58
2022-12-27T01:12:51.057Z,2.49
2022-12-27T01:15:20.711Z,2.39
2022-12-27T01:17:52.846Z,2.30
2022-12-27T01:20:22.536Z,2.22
2022-12-27T01:22:52.306Z,2.14
2022-12-27T01:25:21.913Z,2.09
2022-12-27T01:27:51.547Z,2.09
2022-12-27T01:30:21.306Z,2.15
2022-12-27T01:32:53.466Z,2.14
2022-12-27T01:35:23.089Z,2.19
2022-12-27T01:37:53.319Z,2.30
2022-12-27T01:40:22.860Z,2.44
2022-12-27T01:42:52.462Z,2.58
2022-12-27T01:45:23.219Z,2.65
2022-12-27T01:47:58.227Z,2.65
2022-12-27T01:50:32.306Z,2.62
2022-12-27T01:53:06.644Z,2.68
2022-12-27T01:55:39.843Z,2.75
2022-12-27T01:58:20.611Z,2.81
2022-12-27T02:00:51.897Z,2.83
2022-12-27T02:03:28.136Z,2.92
2022-12-27T02:05:58.318Z,2.97
2022-12-27T02:08:42.885Z,3.04
2022-12-27T02:11:13.709Z,3.07
2022-12-27T02:13:45.630Z,3.06
2022-12-27T02:16:17.811Z,3.07
2022-12-27T02:18:50.248Z,3.09
2022-12-27T02:21:39.590Z,3.07
2022-12-27T02:24:22.753Z,2.97
2022-12-27T02:26:54.986Z,2.84
2022-12-27T02:29:50.521Z,2.68
2022-12-27T02:32:23.953Z,2.52
2022-12-27T02:35:00.501Z,2.40
2022-12-27T02:37:32.761Z,2.31
2022-12-27T02:40:23.251Z,2.19
2022-12-27T02:43:05.567Z,2.09
2022-12-27T02:45:54.322Z,2.02
2022-12-27T02:48:36.371Z,1.97
2022-12-27T02:51:41.243Z,1.92
2022-12-27T02:54:22.862Z,1.91
2022-12-27T02:57:14.138Z,1.85
2022-12-27T03:00:21.135Z,1.83
2022-12-27T03:03:29.005Z,1.82
2022-12-27T03:06:32.919Z,1.82
2022-12-27T03:09:09.468Z,1.82
2022-12-27T03:11:59.729Z,1.83
2022-12-27T03:14:44.425Z,1.83
2022-12-27T03:17:20.418Z,1.81
2022-12-27T03:20:07.436Z,1.82
2022-12-27T03:22:51.883Z,1.79
2022-12-27T03:25:31.208Z,1.79
2022-12-27T03:28:16.112Z,1.77
2022-12-27T03:31:04.022Z,1.78
2022-12-27T03:33:35.214Z,1.75
2022-12-27T03:36:24.348Z,1.77
2022-12-27T03:38:58.352Z,1.77
2022-12-27T03:41:45.450Z,1.78
2022-12-27T03:44:26.791Z,1.77
2022-12-27T03:46:56.267Z,1.78
2022-12-27T03:49:30.882Z,1.79
2022-12-27T03:52:07.213Z,1.81
2022-12-27T03:54:38.314Z,1.81
2022-12-27T03:57:10.441Z,1.81
2022-12-27T03:59:40.114Z,1.79
2022-12-27T04:02:10.403Z,1.83
2022-12-27T04:04:40.625Z,1.88
2022-12-27T04:07:13.952Z,1.91
2022-12-27T04:09:56.993Z,1.90
2022-12-27T04:12:39.291Z,1.91
2022-12-27T04:15:22.037Z,1.91
2022-12-27T04:18:04.094Z,1.90
2022-12-27T04:20:46.325Z,1.92
2022-12-27T04:23:30.954Z,1.95
2022-12-27T04:26:13.057Z,1.99
2022-12-27T04:28:57.313Z,2.05
2022-12-27T04:31:39.430Z,2.16
2022-12-27T04:34:21.535Z,2.33
2022-12-27T04:36:51.421Z,2.53
2022-12-27T04:39:23.750Z,2.71
2022-12-27T04:42:05.778Z,2.90
2022-12-27T04:44:47.829Z,3.09
2022-12-27T04:47:32.628Z,3.25
2022-12-27T04:50:14.729Z,3.37
2022-12-27T04:52:57.543Z,3.49
2022-12-27T04:55:31.578Z,3.60
2022-12-27T04:58:01.562Z,3.69
2022-12-27T05:00:45.532Z,3.79
2022-12-27T05:03:18.464Z,3.88
2022-12-27T05:05:49.050Z,3.97
2022-12-27T05:08:31.353Z,4.05
2022-12-27T05:11:16.040Z,4.14
2022-12-27T05:13:58.765Z,4.21
2022-12-27T05:16:28.443Z,4.28
2022-12-27T05:18:58.071Z,4.34
2022-12-27T05:21:28.168Z,4.37
2022-12-27T05:24:10.218Z,4.42
2022-12-27T05:26:42.434Z,4.47
2022-12-27T05:29:12.072Z,4.50
2022-12-27T05:31:41.669Z,4.54
2022-12-27T05:34:11.351Z,4.55
2022-12-27T05:36:40.926Z,4.60
2022-12-27T05:39:10.515Z,4.63
2022-12-27T05:41:42.682Z,4.67
2022-12-27T05:44:12.294Z,4.71
2022-12-27T05:46:42.349Z,4.74
2022-12-27T05:49:11.947Z,4.76
2022-12-27T05:51:41.535Z,4.77
2022-12-27T05:54:11.141Z,4.78
2022-12-27T05:56:43.315Z,4.81
2022-12-27T05:59:12.876Z,4.85
2022-12-27T06:01:42.629Z,4.88
2022-12-27T06:04:12.618Z,4.91
2022-12-27T06:06:42.198Z,4.94
2022-12-27T06:09:12.544Z,4.94
2022-12-27T06:11:44.720Z,4.97
2022-12-27T06:14:14.325Z,4.98
2022-12-27T06:16:43.926Z,5.01
2022-12-27T06:19:13.580Z,5.02
2022-12-27T06:21:45.455Z,5.03
2022-12-27T06:24:15.067Z,5.05
2022-12-27T06:26:47.219Z,5.07
2022-12-27T06:29:16.871Z,5.07
2022-12-27T06:31:46.986Z,5.06
2022-12-27T06:34:16.597Z,5.07
2022-12-27T06:36:50.191Z,5.08
2022-12-27T06:39:20.172Z,5.11
2022-12-27T06:41:55.209Z,5.12
2022-12-27T06:44:25.009Z,5.10
2022-12-27T06:46:54.601Z,5.12
2022-12-27T06:49:25.803Z,5.12
2022-12-27T06:51:59.503Z,5.09
2022-12-27T06:54:29.285Z,4.99
2022-12-27T06:57:01.470Z,4.87
2022-12-27T06:59:31.027Z,4.76
2022-12-27T07:02:00.731Z,4.67
2022-12-27T07:04:30.548Z,4.55
2022-12-27T07:07:00.152Z,4.43
2022-12-27T07:09:30.047Z,4.29
2022-12-27T07:12:02.189Z,4.13
2022-12-27T07:14:31.813Z,4.00
2022-12-27T07:17:01.393Z,3.86
2022-12-27T07:19:31.038Z,3.74
2022-12-27T07:22:00.637Z,3.64
2022-12-27T07:24:32.243Z,3.55
2022-12-27T07:27:05.308Z,3.49
2022-12-27T07:29:35.751Z,3.41
2022-12-27T07:32:08.262Z,3.36
2022-12-27T07:34:37.911Z,3.31
2022-12-27T07:37:07.492Z,3.30
2022-12-27T07:39:37.076Z,3.34
2022-12-27T07:42:09.323Z,3.39
2022-12-27T07:44:40.550Z,3.40
2022-12-27T07:47:10.329Z,3.38
2022-12-27T07:49:39.902Z,3.37
2022-12-27T07:52:09.542Z,3.34
2022-12-27T07:54:39.118Z,3.32
2022-12-27T07:57:11.281Z,3.31
2022-12-27T07:59:40.858Z,3.29
2022-12-27T08:02:12.016Z,3.28
2022-12-27T08:04:41.700Z,3.26
2022-12-27T08:07:15.393Z,3.26
2022-12-27T08:09:47.156Z,3.26
2022-12-27T08:12:19.633Z,3.28
2022-12-27T08:14:49.233Z,3.30
2022-12-27T08:17:21.061Z,3.34
2022-12-27T08:19:50.849Z,3.39
2022-12-27T08:22:20.521Z,3.51
2022-12-27T08:24:50.123Z,3.68
2022-12-27T08:27:27.284Z,3.84
2022-12-27T08:29:57.054Z,3.94
2022-12-27T08:32:26.776Z,4.00
2022-12-27T08:35:06.996Z,4.03
2022-12-27T08:37:46.009Z,4.05
2022-12-27T08:40:15.646Z,4.06
2022-12-27T08:42:47.873Z,4.12
2022-12-27T08:45:17.861Z,4.18
2022-12-27T08:47:47.506Z,4.24
2022-12-27T08:50:17.166Z,4.37
2022-12-27T08:52:46.761Z,4.50
2022-12-27T08:55:16.427Z,4.56
2022-12-27T08:57:48.582Z,4.64
2022-12-27T09:00:19.113Z,4.72
2022-12-27T09:02:48.704Z,4.79
2022-12-27T09:05:19.654Z,4.84
2022-12-27T09:07:49.484Z,4.96
2022-12-27T09:10:20.007Z,5.17
2022-12-27T09:12:52.274Z,5.33
2022-12-27T09:15:21.905Z,5.53
2022-12-27T09:17:51.475Z,5.76
2022-12-27T09:20:21.170Z,5.94
2022-12-27T09:22:51.885Z,6.05
2022-12-27T09:25:21.799Z,6.14
2022-12-27T09:27:54.700Z,6.25
2022-12-27T09:30:24.289Z,6.44
2022-12-27T09:32:53.876Z,6.78
2022-12-27T09:35:23.486Z,7.30
2022-12-27T09:37:53.045Z,7.85
2022-12-27T09:40:23.111Z,8.36
2022-12-27T09:43:12.471Z,8.87
2022-12-27T09:45:49.187Z,9.18
2022-12-27T09:48:26.299Z,9.46
2022-12-27T09:51:02.913Z,9.66
2022-12-27T09:53:40.487Z,9.63
2022-12-27T09:56:11.475Z,9.60
2022-12-27T09:58:48.675Z,9.63
2022-12-27T10:01:23.654Z,9.56
2022-12-27T10:03:54.148Z,9.49
2022-12-27T10:06:53.501Z,9.48
2022-12-27T10:09:32.558Z,9.38
2022-12-27T10:12:06.570Z,9.16
2022-12-27T10:14:51.676Z,8.92
2022-12-27T10:17:30.419Z,8.65
2022-12-27T10:20:07.912Z,8.42
2022-12-27T10:22:40.835Z,8.23
2022-12-27T10:25:15.143Z,8.09
2022-12-27T10:27:45.188Z,7.97
2022-12-27T10:30:20.981Z,7.86
2022-12-27T10:32:51.342Z,7.77
2022-12-27T10:35:24.257Z,7.65
2022-12-27T10:37:54.094Z,7.56
2022-12-27T10:40:31.043Z,7.49
2022-12-27T10:43:06.472Z,7.41
2022-12-27T10:45:42.401Z,7.32
2022-12-27T10:48:19.227Z,7.26
2022-12-27T10:50:51.526Z,7.22
2022-12-27T10:53:38.359Z,7.22
2022-12-27T10:56:16.814Z,7.24
2022-12-27T10:58:54.648Z,7.29
2022-12-27T11:01:32.574Z,7.35
2022-12-27T11:04:20.191Z,7.39
2022-12-27T11:06:51.675Z,7.44
2022-12-27T11:09:33.178Z,7.49
2022-12-27T11:12:23.903Z,7.58
2022-12-27T11:14:58.476Z,7.71
2022-12-27T11:17:32.955Z,7.88
2022-12-27T11:20:22.894Z,8.12
2022-12-27T11:22:54.656Z,8.22
2022-12-27T11:25:24.570Z,8.25
2022-12-27T11:27:56.140Z,8.23
2022-12-27T11:30:28.028Z,8.21
2022-12-27T11:33:00.433Z,8.18
2022-12-27T11:35:30.129Z,8.16
2022-12-27T11:37:59.997Z,8.14
2022-12-27T11:40:34.760Z,8.18
2022-12-27T11:43:09.009Z,8.20
2022-12-27T11:45:38.812Z,8.22
2022-12-27T11:48:21.235Z,8.21
2022-12-27T11:51:00.189Z,8.24
2022-12-27T11:54:11.729Z,8.28
2022-12-27T11:56:42.520Z,8.27
2022-12-27T11:59:42.885Z,8.26
2022-12-27T12:02:30.990Z,8.27
2022-12-27T12:05:23.389Z,8.22
2022-12-27T12:08:04.423Z,8.13
2022-12-27T12:10:41.258Z,8.08
2022-12-27T12:13:30.601Z,8.06
2022-12-27T12:16:26.703Z,8.04
2022-12-27T12:19:07.217Z,8.03
2022-12-27T12:21:43.326Z,8.06
2022-12-27T12:24:56.986Z,8.05
2022-12-27T12:27:38.693Z,8.02
2022-12-27T12:30:27.426Z,7.99
2022-12-27T12:33:10.676Z,7.97
2022-12-27T12:36:06.274Z,7.99
2022-12-27T12:38:41.409Z,7.97
2022-12-27T12:41:23.798Z,7.99
2022-12-27T12:44:23.932Z,8.02
2022-12-27T12:47:00.322Z,8.02
2022-12-27T12:49:46.384Z,8.05
2022-12-27T12:52:29.743Z,8.06
2022-12-27T12:55:30.941Z,8.09
2022-12-27T12:58:13.937Z,8.14
2022-12-27T13:01:05.852Z,8.20
2022-12-27T13:04:03.098Z,8.19
2022-12-27T13:07:20.306Z,8.22
2022-12-27T13:10:31.141Z,8.24
2022-12-27T13:13:09.618Z,8.23
2022-12-27T13:15:50.770Z,8.22
2022-12-27T13:18:30.177Z,8.19
2022-12-27T13:21:11.896Z,8.19
2022-12-27T13:23:49.474Z,8.19
2022-12-27T13:26:24.949Z,8.21
2022-12-27T13:29:13.002Z,8.23
2022-12-27T13:31:47.658Z,8.23
2022-12-27T13:34:26.992Z,8.20
2022-12-27T13:37:10.202Z,8.18
2022-12-27T13:39:46.254Z,8.16
2022-12-27T13:42:41.795Z,8.14
2022-12-27T13:45:23.724Z,8.11
2022-12-27T13:48:12.806Z,8.12
2022-12-27T13:51:04.784Z,8.13
2022-12-27T13:54:08.262Z,8.12
2022-12-27T13:56:57.741Z,8.09
2022-12-27T13:59:51.322Z,8.08
2022-12-27T14:02:52.442Z,8.07
2022-12-27T14:05:52.824Z,8.07
2022-12-27T14:08:33.237Z,8.06
2022-12-27T14:11:03.884Z,8.06
2022-12-27T14:13:37.179Z,8.05
2022-12-27T14:16:19.035Z,8.06
2022-12-27T14:19:03.071Z,8.05
2022-12-27T14:22:01.150Z,8.03
2022-12-27T14:24:56.279Z,8.01
2022-12-27T14:28:07.211Z,8.00
2022-12-27T14:31:10.205Z,7.98
2022-12-27T14:34:00.695Z,7.96
2022-12-27T14:37:00.555Z,7.94
2022-12-27T14:39:49.794Z,7.91
2022-12-27T14:42:46.359Z,7.89
2022-12-27T14:45:37.416Z,7.85
2022-12-27T14:48:31.345Z,7.81
2022-12-27T14:51:50.501Z,7.76
2022-12-27T14:54:31.221Z,7.71
2022-12-27T14:57:06.426Z,7.65
2022-12-27T14:59:45.031Z,7.56
2022-12-27T15:02:32.583Z,7.50
2022-12-27T15:05:25.034Z,7.46
2022-12-27T15:08:10.484Z,7.47
2022-12-27T15:10:52.183Z,7.49
2022-12-27T15:13:27.702Z,7.48
2022-12-27T15:16:03.277Z,7.44
2022-12-27T15:18:49.720Z,7.36
2022-12-27T15:21:25.493Z,7.30
2022-12-27T15:24:02.548Z,7.24
2022-12-27T15:26:37.577Z,7.17
2022-12-27T15:29:36.227Z,7.10
2022-12-27T15:32:14.732Z,7.03
2022-12-27T15:35:03.560Z,7.02
2022-12-27T15:37:54.761Z,7.05
2022-12-27T15:40:42.109Z,7.06
2022-12-27T15:43:25.038Z,7.11
2022-12-27T15:46:02.614Z,7.16
2022-12-27T15:48:53.328Z,7.22
2022-12-27T15:51:29.911Z,7.28
2022-12-27T15:54:16.900Z,7.33
2022-12-27T15:56:55.343Z,7.36
2022-12-27T15:59:39.072Z,7.38
2022-12-27T16:02:27.881Z,7.38
2022-12-27T16:04:59.058Z,7.37
2022-12-27T16:07:40.765Z,7.39
2022-12-27T16:10:36.250Z,7.38
2022-12-27T16:13:23.579Z,7.35
2022-12-27T16:15:55.465Z,7.33
2022-12-27T16:18:46.585Z,7.33
2022-12-27T16:21:19.507Z,7.29
2022-12-27T16:23:54.938Z,7.21
2022-12-27T16:26:26.728Z,7.09
2022-12-27T16:29:02.282Z,6.93
2022-12-27T16:31:33.777Z,6.79
2022-12-27T16:34:13.894Z,6.67
2022-12-27T16:36:47.662Z,6.54
2022-12-27T16:39:36.161Z,6.41
2022-12-27T16:42:08.389Z,6.28
2022-12-27T16:44:54.863Z,6.16
2022-12-27T16:47:38.927Z,6.05
2022-12-27T16:50:34.771Z,5.96
2022-12-27T16:53:22.089Z,5.86
2022-12-27T16:56:15.087Z,5.82
2022-12-27T16:58:44.845Z,5.75
2022-12-27T17:01:55.913Z,5.71
2022-12-27T17:05:00.413Z,5.61
2022-12-27T17:07:46.938Z,5.55
2022-12-27T17:10:34.828Z,5.47
2022-12-27T17:13:08.305Z,5.38
2022-12-27T17:15:37.912Z,5.35
2022-12-27T17:18:28.398Z,5.32
2022-12-27T17:21:07.111Z,5.31
2022-12-27T17:23:42.408Z,5.28
2022-12-27T17:26:34.543Z,5.24
2022-12-27T17:29:11.031Z,5.18
2022-12-27T17:31:46.812Z,5.15
2022-12-27T17:34:23.003Z,5.11
2022-12-27T17:37:00.481Z,5.05
2022-12-27T17:39:39.603Z,4.97
2022-12-27T17:42:27.263Z,4.86
2022-12-27T17:45:09.179Z,4.75
2022-12-27T17:48:00.117Z,4.68
2022-12-27T17:50:32.522Z,4.60
2022-12-27T17:53:28.084Z,4.54
2022-12-27T17:56:16.064Z,4.51
2022-12-27T17:58:45.629Z,4.47
2022-12-27T18:01:15.492Z,4.47
2022-12-27T18:03:47.679Z,4.40
2022-12-27T18:06:23.463Z,4.36
2022-12-27T18:08:53.159Z,4.31
2022-12-27T18:11:27.888Z,4.24
2022-12-27T18:13:59.192Z,4.18
2022-12-27T18:16:36.228Z,4.12
2022-12-27T18:19:06.156Z,4.06
2022-12-27T18:21:40.624Z,4.03
2022-12-27T18:24:20.635Z,4.00
2022-12-27T18:26:50.216Z,3.99
2022-12-27T18:29:19.823Z,3.97
2022-12-27T18:31:51.326Z,3.95
2022-12-27T18:34:26.417Z,3.94
2022-12-27T18:37:04.355Z,3.93
2022-12-27T18:39:35.972Z,3.92
2022-12-27T18:42:07.941Z,3.93
2022-12-27T18:44:45.444Z,3.97
2022-12-27T18:47:21.342Z,3.98
2022-12-27T18:49:55.918Z,3.96
2022-12-27T18:52:32.954Z,3.95
2022-12-27T18:55:09.779Z,3.94
2022-12-27T18:57:40.382Z,3.90
2022-12-27T19:00:19.584Z,3.85
2022-12-27T19:02:49.263Z,3.80
2022-12-27T19:05:31.257Z,3.75
2022-12-27T19:08:12.560Z,3.71
2022-12-27T19:10:49.539Z,3.65
2022-12-27T19:13:25.125Z,3.62
2022-12-27T19:15:55.435Z,3.58
2022-12-27T19:18:27.265Z,3.54
2022-12-27T19:20:59.373Z,3.50
2022-12-27T19:23:36.646Z,3.46
2022-12-27T19:26:09.885Z,3.41
2022-12-27T19:28:39.598Z,3.38
2022-12-27T19:31:21.903Z,3.37
2022-12-27T19:33:55.177Z,3.33
2022-12-27T19:36:27.809Z,3.32
2022-12-27T19:39:00.195Z,3.29
2022-12-27T19:41:30.049Z,3.26
2022-12-27T19:43:59.603Z,3.20
2022-12-27T19:46:31.338Z,3.18
2022-12-27T19:49:40.772Z,3.15
2022-12-27T19:51:50.636Z,3.12
2022-12-27T19:54:24.827Z,3.12
2022-12-27T19:56:54.179Z,3.10
2022-12-27T19:59:25.511Z,3.09
2022-12-27T20:01:55.563Z,3.09
2022-12-27T20:04:25.220Z,3.10
2022-12-27T20:06:54.797Z,3.09
2022-12-27T20:09:26.934Z,3.08
2022-12-27T20:11:56.503Z,3.07
2022-12-27T20:14:26.073Z,3.05
2022-12-27T20:16:55.769Z,3.07
2022-12-27T20:19:25.365Z,3.09
2022-12-27T20:21:54.955Z,3.09
2022-12-27T20:24:27.185Z,3.09
2022-12-27T20:26:56.733Z,3.07
2022-12-27T20:29:27.516Z,3.05
2022-12-27T20:31:59.345Z,3.02
2022-12-27T20:34:28.939Z,3.02
2022-12-27T20:37:00.613Z,3.02
2022-12-27T20:39:33.157Z,3.02
2022-12-27T20:42:02.814Z,2.99
2022-12-27T20:44:32.425Z,2.98
2022-12-27T20:47:02.046Z,2.97
2022-12-27T20:49:31.662Z,2.96
2022-12-27T20:52:01.249Z,2.97
2022-12-27T20:54:33.553Z,2.98
2022-12-27T20:57:03.657Z,3.00
2022-12-27T20:59:33.206Z,2.99
2022-12-27T21:02:02.872Z,2.99
2022-12-27T21:04:32.553Z,3.02
2022-12-27T21:07:02.196Z,3.01
2022-12-27T21:09:34.357Z,3.02
2022-12-27T21:12:03.922Z,3.03
2022-12-27T21:14:33.825Z,3.04
2022-12-27T21:17:03.686Z,3.07
2022-12-27T21:19:33.572Z,3.07
2022-12-27T21:22:03.154Z,3.05
2022-12-27T21:24:35.351Z,3.07
2022-12-27T21:27:04.916Z,3.10
2022-12-27T21:29:34.502Z,3.16
2022-12-27T21:32:04.160Z,3.21
2022-12-27T21:34:34.983Z,3.24
2022-12-27T21:37:08.693Z,3.26
2022-12-27T21:39:43.729Z,3.29
2022-12-27T21:42:14.506Z,3.29
2022-12-27T21:44:44.076Z,3.30
2022-12-27T21:47:13.681Z,3.32
2022-12-27T21:49:43.232Z,3.34
2022-12-27T21:52:12.801Z,3.38
2022-12-27T21:54:44.921Z,3.43
2022-12-27T21:57:14.473Z,3.47
2022-12-27T21:59:44.026Z,3.51
2022-12-27T22:02:13.762Z,3.54
2022-12-27T22:04:43.429Z,3.54
2022-12-27T22:07:13.118Z,3.55
2022-12-27T22:09:45.252Z,3.53
2022-12-27T22:12:14.813Z,3.53
2022-12-27T22:14:44.383Z,3.53
2022-12-27T22:17:13.936Z,3.53
2022-12-27T22:19:43.493Z,3.50
2022-12-27T22:22:13.014Z,3.50
2022-12-27T22:24:45.315Z,3.52
2022-12-27T22:27:14.879Z,3.50
2022-12-27T22:29:44.450Z,3.48
2022-12-27T22:32:14.282Z,3.47
2022-12-27T22:34:44.241Z,3.49
2022-12-27T22:37:13.767Z,3.46
2022-12-27T22:39:45.936Z,3.46
2022-12-27T22:42:15.749Z,3.46
2022-12-27T22:44:45.323Z,3.45
2022-12-27T22:47:26.405Z,3.47
2022-12-27T22:49:57.130Z,3.52
2022-12-27T22:52:26.722Z,3.59
2022-12-27T22:55:04.442Z,3.69
2022-12-27T22:57:36.854Z,3.78
2022-12-27T23:00:09.461Z,3.83
2022-12-27T23:02:39.192Z,3.87
2022-12-27T23:05:09.867Z,3.88
2022-12-27T23:08:05.578Z,3.87
2022-12-27T23:10:31.777Z,3.88
2022-12-27T23:13:01.311Z,3.88
2022-12-27T23:15:30.856Z,3.89
2022-12-27T23:18:00.821Z,3.92
2022-12-27T23:20:30.366Z,3.93
2022-12-27T23:22:59.974Z,3.97
2022-12-27T23:25:32.093Z,4.01
2022-12-27T23:28:02.120Z,4.05
2022-12-27T23:30:31.664Z,4.11
2022-12-27T23:33:01.285Z,4.17
2022-12-27T23:35:30.843Z,4.22
2022-12-27T23:38:00.405Z,4.28
2022-12-27T23:40:32.643Z,4.32
2022-12-27T23:43:18.714Z,4.36
2022-12-27T23:45:51.964Z,4.40
2022-12-27T23:48:21.518Z,4.44
2022-12-27T23:50:51.079Z,4.47
2022-12-27T23:53:21.567Z,4.51
2022-12-27T23:56:01.078Z,4.54
2022-12-27T23:58:30.902Z,4.55
